Time;durP1;ratioP1;P1;durP2;ratioP2;P2;SDS_P1;SDS_P2;PMS_P1;PMS_P2;Temp;Humidity;BMP_temperature;BMP_pressure;BME280_temperature;BME280_humidity;BME280_pressure;Samples;Min_cycle;Max_cycle;Signal;HPM_P1;HPM_P2
2022/01/03 00:01:04;;;;;;;8.45;1.60;;;9.00;99.90;;;;;;4974458;28;20039;-74
2022/01/03 00:03:30;;;;;;;6.78;1.55;;;9.00;99.90;;;;;;4991348;28;20117;-74
2022/01/03 00:05:55;;;;;;;9.95;1.80;;;9.00;99.90;;;;;;4991637;28;20142;-74
2022/01/03 00:08:21;;;;;;;8.82;1.63;;;9.10;99.90;;;;;;4977301;28;20042;-73
2022/01/03 00:10:47;;;;;;;7.07;2.03;;;9.10;99.90;;;;;;4977194;28;20115;-74
2022/01/03 00:13:12;;;;;;;9.27;1.83;;;9.10;99.90;;;;;;4978335;28;20546;-74
2022/01/03 00:15:38;;;;;;;12.73;1.73;;;9.10;99.90;;;;;;4976698;28;20060;-74
2022/01/03 00:18:04;;;;;;;9.32;1.90;;;9.20;99.90;;;;;;4977482;28;20045;-74
2022/01/03 00:20:29;;;;;;;6.40;2.00;;;9.20;99.90;;;;;;4977492;28;20050;-73
2022/01/03 00:23:00;;;;;;;9.80;1.65;;;9.10;99.90;;;;;;4993879;28;20030;-73
2022/01/03 00:25:26;;;;;;;6.40;1.60;;;9.20;99.90;;;;;;4977171;28;20086;-72
2022/01/03 00:27:58;;;;;;;10.57;1.70;;;9.30;99.90;;;;;;4998872;28;20077;-73
2022/01/03 00:30:24;;;;;;;11.25;1.52;;;9.30;99.90;;;;;;4977258;28;20085;-72
2022/01/03 00:32:51;;;;;;;9.32;2.60;;;9.30;99.90;;;;;;4977631;28;20456;-73
2022/01/03 00:35:19;;;;;;;10.02;1.95;;;9.40;99.90;;;;;;5000521;28;20043;-73
2022/01/03 00:37:46;;;;;;;7.95;1.58;;;9.40;99.90;;;;;;4979163;28;20066;-73
2022/01/03 00:40:13;;;;;;;9.15;1.58;;;9.50;99.90;;;;;;4976288;28;20047;-75
2022/01/03 00:42:40;;;;;;;6.35;1.52;;;9.50;99.90;;;;;;4976842;28;20050;-72
2022/01/03 00:45:06;;;;;;;9.55;1.60;;;9.50;99.90;;;;;;4976873;28;20376;-72
2022/01/03 00:47:33;;;;;;;10.93;1.80;;;9.60;99.90;;;;;;4976307;28;20038;-73
2022/01/03 00:50:06;;;;;;;11.80;2.58;;;9.50;99.90;;;;;;4971349;28;20122;-73
2022/01/03 00:52:32;;;;;;;14.52;2.28;;;9.50;99.90;;;;;;4988674;28;20054;-73
2022/01/03 00:54:57;;;;;;;13.70;1.80;;;9.40;99.90;;;;;;4958801;28;20051;-73
2022/01/03 00:57:44;;;;;;;12.13;2.20;;;9.40;99.90;;;;;;4955335;28;20053;-73
2022/01/03 01:00:10;;;;;;;10.25;2.20;;;9.50;99.90;;;;;;4961207;28;20047;-74
2022/01/03 01:02:37;;;;;;;13.98;2.55;;;9.50;99.90;;;;;;4957491;28;20038;-75
2022/01/03 01:05:05;;;;;;;12.23;1.95;;;9.40;99.90;;;;;;4989003;23;20060;-74
2022/01/03 01:07:32;;;;;;;14.90;2.28;;;9.50;99.90;;;;;;5032389;28;20115;-72
2022/01/03 01:10:00;;;;;;;13.55;2.97;;;9.40;99.90;;;;;;5045180;28;20389;-74
2022/01/03 01:12:29;;;;;;;10.90;2.50;;;9.40;99.90;;;;;;5038464;28;20041;-72
2022/01/03 01:14:55;;;;;;;15.38;2.92;;;9.50;99.90;;;;;;5047969;28;20055;-72
2022/01/03 01:17:21;;;;;;;12.23;2.22;;;9.40;99.90;;;;;;5050365;28;20048;-72
2022/01/03 01:19:48;;;;;;;15.15;2.30;;;9.40;99.90;;;;;;5054648;28;20087;-72
2022/01/03 01:22:14;;;;;;;14.32;2.08;;;9.50;99.90;;;;;;5072490;28;20063;-73
2022/01/03 01:24:57;;;;;;;17.58;2.33;;;9.50;99.90;;;;;;5038675;28;20028;-72
2022/01/03 01:30:08;;;;;;;16.48;2.83;;;9.50;99.90;;;;;;5050551;28;20047;-73
2022/01/03 01:32:34;;;;;;;12.88;2.25;;;9.40;99.90;;;;;;5054170;28;20393;-72
2022/01/03 01:35:00;;;;;;;13.38;2.67;;;9.40;99.90;;;;;;5055514;28;20044;-75
2022/01/03 01:37:26;;;;;;;12.57;2.33;;;9.40;99.90;;;;;;5063778;28;20126;-72
2022/01/03 01:39:52;;;;;;;15.88;2.33;;;9.40;99.90;;;;;;5066359;28;20090;-73
2022/01/03 01:42:19;;;;;;;13.77;2.83;;;9.50;99.90;;;;;;5047822;28;20044;-72
2022/01/03 01:44:50;;;;;;;15.60;2.83;;;9.40;99.90;;;;;;5055373;28;20044;-72
2022/01/03 01:47:17;;;;;;;15.65;2.30;;;9.50;99.90;;;;;;5037059;28;20053;-72
2022/01/03 01:49:46;;;;;;;11.23;2.47;;;9.50;99.90;;;;;;5035360;28;20037;-72
2022/01/03 01:52:19;;;;;;;19.08;3.58;;;9.50;99.90;;;;;;5043199;28;20029;-73
2022/01/03 01:55:00;;;;;;;18.33;3.03;;;9.50;99.90;;;;;;5035531;28;20083;-72
2022/01/03 01:58:03;;;;;;;13.88;2.58;;;9.60;99.90;;;;;;5043920;28;20049;-72
2022/01/03 02:00:29;;;;;;;18.33;2.90;;;9.60;99.90;;;;;;5048111;28;20037;-72
2022/01/03 02:03:04;;;;;;;18.80;3.80;;;9.60;99.90;;;;;;5051964;28;20036;-71
2022/01/03 02:05:47;;;;;;;18.08;2.67;;;9.60;99.90;;;;;;5018498;28;20049;-71
2022/01/03 02:08:25;;;;;;;18.75;2.85;;;9.70;99.90;;;;;;5048638;28;20052;-72
2022/01/03 02:11:17;;;;;;;19.40;3.10;;;9.70;99.90;;;;;;5019223;28;20047;-72
2022/01/03 02:13:44;;;;;;;12.23;2.75;;;9.70;99.90;;;;;;5071165;28;20165;-72
2022/01/03 02:16:11;;;;;;;19.90;3.33;;;9.70;99.90;;;;;;5051949;28;20048;-73
2022/01/03 02:18:37;;;;;;;15.40;2.97;;;9.60;99.90;;;;;;5046120;28;20079;-73
2022/01/03 02:21:03;;;;;;;13.85;2.70;;;9.60;99.90;;;;;;5037974;28;20044;-72
2022/01/03 02:23:29;;;;;;;14.38;2.28;;;9.60;99.90;;;;;;5073257;28;20123;-72
2022/01/03 02:25:55;;;;;;;23.65;3.22;;;9.70;99.90;;;;;;5053919;28;20119;-72
2022/01/03 02:28:22;;;;;;;14.98;2.60;;;9.70;99.90;;;;;;5086674;28;20044;-73
2022/01/03 02:30:49;;;;;;;20.58;4.25;;;9.70;99.90;;;;;;5039135;28;20037;-72
2022/01/03 02:33:15;;;;;;;13.43;2.95;;;9.70;99.90;;;;;;5052946;28;20044;-72
2022/01/03 02:35:43;;;;;;;13.85;3.08;;;9.70;99.90;;;;;;5046341;28;20045;-73
2022/01/03 02:38:09;;;;;;;13.77;2.80;;;9.60;99.90;;;;;;5071327;28;20036;-73
2022/01/03 02:40:35;;;;;;;19.20;2.78;;;9.60;99.90;;;;;;5072449;28;20496;-72
2022/01/03 02:43:01;;;;;;;18.83;2.90;;;9.70;99.90;;;;;;5072735;28;20036;-72
2022/01/03 02:45:27;;;;;;;18.95;3.45;;;9.70;99.90;;;;;;5056093;28;20043;-73
2022/01/03 02:47:55;;;;;;;16.38;3.03;;;9.70;99.90;;;;;;5046599;28;20394;-72
2022/01/03 02:50:23;;;;;;;13.13;2.97;;;9.70;99.90;;;;;;5045295;28;20060;-72
2022/01/03 02:52:49;;;;;;;20.75;3.28;;;9.60;99.90;;;;;;5031254;28;20478;-72
2022/01/03 02:55:16;;;;;;;14.18;2.83;;;9.70;99.90;;;;;;5071351;28;20040;-72
2022/01/03 02:57:48;;;;;;;13.98;2.28;;;9.70;99.90;;;;;;5040115;28;20040;-73
2022/01/03 03:00:19;;;;;;;18.58;2.92;;;9.70;99.90;;;;;;5046402;28;20425;-72
2022/01/03 03:02:45;;;;;;;13.80;2.72;;;9.70;99.90;;;;;;5036215;28;20485;-73
2022/01/03 03:05:11;;;;;;;19.98;3.63;;;9.60;99.90;;;;;;5043975;28;20101;-73
2022/01/03 03:07:38;;;;;;;22.17;3.55;;;9.60;99.90;;;;;;5078489;28;20055;-72
2022/01/03 03:10:10;;;;;;;17.63;2.90;;;9.60;99.90;;;;;;5053246;28;20401;-73
2022/01/03 03:12:35;;;;;;;17.02;2.95;;;9.60;99.90;;;;;;5084272;28;20048;-72
2022/01/03 03:15:01;;;;;;;14.20;3.15;;;9.60;99.90;;;;;;5053401;28;20067;-73
2022/01/03 03:17:27;;;;;;;16.65;2.83;;;9.60;99.90;;;;;;5052788;28;20462;-73
2022/01/03 03:19:55;;;;;;;17.83;2.95;;;9.60;99.90;;;;;;5033767;28;20041;-74
2022/01/03 03:22:24;;;;;;;19.85;3.28;;;9.70;99.90;;;;;;5049762;28;20036;-73
2022/01/03 03:24:51;;;;;;;22.75;2.97;;;9.70;99.90;;;;;;5053580;28;20469;-72
2022/01/03 03:27:17;;;;;;;19.92;3.88;;;9.60;99.90;;;;;;5046750;28;20115;-72
2022/01/03 03:29:52;;;;;;;18.85;3.47;;;9.60;99.90;;;;;;5054016;28;20146;-72
2022/01/03 03:32:19;;;;;;;12.60;2.70;;;9.60;99.90;;;;;;5040857;28;20061;-73
2022/01/03 03:34:48;;;;;;;17.88;3.22;;;9.50;99.90;;;;;;5057943;28;20037;-72
2022/01/03 03:37:16;;;;;;;19.13;3.70;;;9.50;99.90;;;;;;5052347;28;20048;-72
2022/01/03 03:39:43;;;;;;;14.50;2.90;;;9.50;99.90;;;;;;5050627;28;20116;-73
2022/01/03 03:42:10;;;;;;;22.38;3.72;;;9.40;99.90;;;;;;5051249;28;20051;-73
2022/01/03 03:44:37;;;;;;;15.88;3.13;;;9.40;99.90;;;;;;5052322;28;20060;-72
2022/01/03 03:47:04;;;;;;;22.35;4.18;;;9.30;99.90;;;;;;5069686;28;20108;-73
2022/01/03 03:49:30;;;;;;;17.15;3.33;;;9.30;99.90;;;;;;5051297;28;20501;-72
2022/01/03 03:51:56;;;;;;;18.15;3.17;;;9.20;99.90;;;;;;5044928;28;20037;-73
2022/01/03 03:54:21;;;;;;;18.10;3.35;;;9.20;99.90;;;;;;5036262;28;20124;-72
2022/01/03 03:56:47;;;;;;;14.52;2.50;;;9.20;99.90;;;;;;5072569;28;20666;-72
2022/01/03 03:59:13;;;;;;;21.00;3.20;;;9.20;99.90;;;;;;5044566;28;20131;-72
2022/01/03 04:01:39;;;;;;;19.85;3.40;;;9.30;99.90;;;;;;5070091;28;20067;-72
2022/01/03 04:04:04;;;;;;;20.98;3.83;;;9.30;99.90;;;;;;5035825;28;20036;-72
2022/01/03 04:06:30;;;;;;;22.23;3.95;;;9.30;99.90;;;;;;5066804;28;20040;-72
2022/01/03 04:08:55;;;;;;;19.40;3.83;;;9.30;99.90;;;;;;5045028;28;20432;-72
2022/01/03 04:11:21;;;;;;;23.08;3.63;;;9.30;99.90;;;;;;5068197;28;20036;-72
2022/01/03 04:13:47;;;;;;;19.10;2.85;;;9.20;99.90;;;;;;5058357;28;20070;-72
2022/01/03 04:16:13;;;;;;;18.23;3.22;;;9.40;99.90;;;;;;5072905;28;20094;-73
2022/01/03 04:18:39;;;;;;;23.90;3.40;;;9.40;99.90;;;;;;5060622;28;20045;-72
2022/01/03 04:21:04;;;;;;;24.70;3.58;;;9.40;99.90;;;;;;5034584;28;20446;-72
2022/01/03 04:23:30;;;;;;;12.48;2.30;;;9.40;99.90;;;;;;5039007;28;20079;-73
2022/01/03 04:25:57;;;;;;;20.10;3.95;;;9.50;99.90;;;;;;5050323;28;20037;-72
2022/01/03 04:28:22;;;;;;;20.02;3.90;;;9.50;99.90;;;;;;5046923;28;20106;-72
2022/01/03 04:30:48;;;;;;;14.50;2.92;;;9.50;99.90;;;;;;5051834;28;20028;-72
2022/01/03 04:33:14;;;;;;;18.70;3.10;;;9.50;99.90;;;;;;5063598;28;20048;-73
2022/01/03 04:35:39;;;;;;;22.05;3.40;;;9.60;99.90;;;;;;5033091;28;20049;-73
2022/01/03 04:38:05;;;;;;;12.65;2.08;;;9.50;99.90;;;;;;5050577;28;20094;-72
2022/01/03 04:40:31;;;;;;;18.83;3.47;;;9.50;99.90;;;;;;5051750;28;20427;-72
2022/01/03 04:42:57;;;;;;;25.05;4.22;;;9.50;99.90;;;;;;5064979;28;20090;-73
2022/01/03 04:45:22;;;;;;;23.42;4.40;;;9.50;99.90;;;;;;5038923;28;20040;-73
2022/01/03 04:47:48;;;;;;;21.85;3.70;;;9.50;99.90;;;;;;5049007;28;20060;-72
2022/01/03 04:50:14;;;;;;;21.75;3.33;;;9.50;99.90;;;;;;5023145;28;20546;-72
2022/01/03 04:52:40;;;;;;;21.38;3.53;;;9.50;99.90;;;;;;5066067;28;20532;-73
2022/01/03 04:55:06;;;;;;;25.20;4.22;;;9.60;99.90;;;;;;5068030;28;20087;-73
2022/01/03 04:57:31;;;;;;;21.98;3.85;;;9.50;99.90;;;;;;5067462;28;20478;-72
2022/01/03 04:59:57;;;;;;;26.48;4.85;;;9.50;99.90;;;;;;5037663;28;20047;-73
2022/01/03 05:02:23;;;;;;;19.27;4.07;;;9.50;99.90;;;;;;5044583;28;20033;-71
2022/01/03 05:04:48;;;;;;;22.23;4.32;;;9.50;99.90;;;;;;5050893;28;20044;-72
2022/01/03 05:07:14;;;;;;;23.30;3.80;;;9.50;99.90;;;;;;5055949;28;20087;-73
2022/01/03 05:09:39;;;;;;;24.83;4.45;;;9.50;99.90;;;;;;5055202;28;20120;-72
2022/01/03 05:12:06;;;;;;;25.05;4.82;;;9.50;99.90;;;;;;5055322;28;20075;-73
2022/01/03 05:14:31;;;;;;;28.27;4.80;;;9.50;99.90;;;;;;5063918;28;20047;-72
2022/01/03 05:16:57;;;;;;;26.10;4.28;;;9.40;99.90;;;;;;5053836;28;20029;-72
2022/01/03 05:19:24;;;;;;;26.45;4.05;;;9.40;99.90;;;;;;5055234;28;20492;-72
2022/01/03 05:21:50;;;;;;;20.20;4.68;;;9.40;99.90;;;;;;5069199;28;20044;-72
2022/01/03 05:24:16;;;;;;;25.52;3.85;;;9.50;99.90;;;;;;5050735;28;20032;-73
2022/01/03 05:26:42;;;;;;;20.83;4.28;;;9.50;99.90;;;;;;5054609;28;20762;-72
2022/01/03 05:29:08;;;;;;;28.40;4.25;;;9.50;99.90;;;;;;5049786;28;20048;-73
2022/01/03 05:31:33;;;;;;;23.55;4.18;;;9.50;99.90;;;;;;5060939;28;20040;-72
2022/01/03 05:34:00;;;;;;;21.50;4.45;;;9.50;99.90;;;;;;5055715;28;20036;-72
2022/01/03 05:36:26;;;;;;;20.60;4.32;;;9.50;99.90;;;;;;5047295;28;20666;-73
2022/01/03 05:38:52;;;;;;;18.58;3.42;;;9.50;99.90;;;;;;5045042;28;20036;-72
2022/01/03 05:41:18;;;;;;;22.98;5.03;;;9.50;99.90;;;;;;5052513;28;20119;-73
2022/01/03 05:43:44;;;;;;;26.20;4.43;;;9.60;99.90;;;;;;5071992;28;20037;-72
2022/01/03 05:46:10;;;;;;;24.83;4.47;;;9.50;99.90;;;;;;5055151;28;20397;-73
2022/01/03 05:48:36;;;;;;;20.77;4.30;;;9.40;99.90;;;;;;5052950;28;20048;-72
2022/01/03 05:51:02;;;;;;;25.98;4.90;;;9.40;99.90;;;;;;5067609;28;20472;-72
2022/01/03 05:53:30;;;;;;;20.13;3.95;;;9.40;99.90;;;;;;5056606;28;20062;-72
2022/01/03 05:55:56;;;;;;;25.73;4.00;;;9.50;99.90;;;;;;5050147;28;20498;-72
2022/01/03 05:58:22;;;;;;;29.13;3.97;;;9.50;99.90;;;;;;5052288;28;20086;-73
2022/01/03 06:00:47;;;;;;;28.85;5.15;;;9.50;99.90;;;;;;5049170;28;20394;-72
2022/01/03 06:03:14;;;;;;;19.48;3.17;;;9.50;99.90;;;;;;5040053;28;20516;-72
2022/01/03 06:05:53;;;;;;;23.00;3.95;;;9.60;99.90;;;;;;5053247;28;20461;-74
2022/01/03 06:08:19;;;;;;;27.38;5.13;;;9.60;99.90;;;;;;5054522;28;20120;-73
2022/01/03 06:10:44;;;;;;;23.33;4.32;;;9.50;99.90;;;;;;5053118;28;20052;-73
2022/01/03 06:13:10;;;;;;;26.23;4.30;;;9.50;99.90;;;;;;5052815;28;20056;-73
2022/01/03 06:15:40;;;;;;;25.50;4.45;;;9.40;99.90;;;;;;5036489;28;20041;-73
2022/01/03 06:18:11;;;;;;;23.00;4.40;;;9.40;99.90;;;;;;5054144;28;20120;-72
2022/01/03 06:20:42;;;;;;;21.65;4.03;;;9.30;99.90;;;;;;5052032;28;20044;-71
2022/01/03 06:23:12;;;;;;;25.30;4.55;;;9.40;99.90;;;;;;5049345;28;20049;-72
2022/01/03 06:25:38;;;;;;;25.08;4.15;;;9.40;99.90;;;;;;5037510;28;20049;-72
2022/01/03 06:28:07;;;;;;;28.92;5.05;;;9.40;99.90;;;;;;5054825;28;20174;-72
2022/01/03 06:30:37;;;;;;;22.65;4.47;;;9.30;99.90;;;;;;5053767;28;20048;-72
2022/01/03 06:33:04;;;;;;;23.35;4.35;;;9.30;99.90;;;;;;5054477;28;20056;-73
2022/01/03 06:35:30;;;;;;;31.05;4.15;;;9.20;99.90;;;;;;5053999;28;20033;-72
2022/01/03 06:37:55;;;;;;;20.27;3.55;;;9.20;99.90;;;;;;5072009;28;20089;-71
2022/01/03 06:40:21;;;;;;;27.48;4.57;;;9.20;99.90;;;;;;5041813;28;20123;-72
2022/01/03 06:42:47;;;;;;;24.17;4.57;;;9.20;99.90;;;;;;5067730;28;20166;-72
2022/01/03 06:45:13;;;;;;;25.10;4.45;;;9.20;99.90;;;;;;5056341;28;20649;-72
2022/01/03 06:47:38;;;;;;;28.80;4.93;;;9.30;99.90;;;;;;5070242;28;20041;-71
2022/01/03 06:50:05;;;;;;;22.17;4.35;;;9.30;99.90;;;;;;5073876;28;20039;-72
2022/01/03 06:52:31;;;;;;;23.67;3.90;;;9.30;99.90;;;;;;5057566;28;20087;-71
2022/01/03 06:54:56;;;;;;;26.65;5.13;;;9.20;99.90;;;;;;5046918;28;20040;-72
2022/01/03 06:57:22;;;;;;;25.90;4.07;;;9.20;99.90;;;;;;5054505;28;20091;-72
2022/01/03 06:59:48;;;;;;;25.70;4.00;;;9.30;99.90;;;;;;5073053;28;20069;-72
2022/01/03 07:02:13;;;;;;;23.25;3.47;;;9.20;99.90;;;;;;5036610;28;20047;-72
2022/01/03 07:04:39;;;;;;;31.75;4.70;;;9.20;99.90;;;;;;5053864;28;20058;-71
2022/01/03 07:07:05;;;;;;;27.58;4.45;;;9.20;99.90;;;;;;5049092;28;20102;-72
2022/01/03 07:09:31;;;;;;;27.92;4.13;;;9.20;99.90;;;;;;5034215;28;20088;-71
2022/01/03 07:11:57;;;;;;;23.20;4.32;;;9.30;99.90;;;;;;5051333;28;20127;-71
2022/01/03 07:19:39;;;;;;;26.83;4.95;;;9.30;99.90;;;;;;5048665;28;20055;-71
2022/01/03 07:22:07;;;;;;;22.85;3.85;;;9.30;99.90;;;;;;5036806;28;20052;-71
2022/01/03 07:24:35;;;;;;;30.00;4.82;;;9.30;99.90;;;;;;5053411;28;20127;-72
2022/01/03 07:27:01;;;;;;;29.25;5.55;;;9.20;99.90;;;;;;5050397;28;20037;-71
2022/01/03 07:29:27;;;;;;;28.95;4.78;;;9.20;99.90;;;;;;5035680;28;20051;-72
2022/01/03 07:31:53;;;;;;;24.92;4.07;;;9.20;99.90;;;;;;5058509;28;20039;-71
2022/01/03 07:34:18;;;;;;;28.50;4.50;;;9.30;99.90;;;;;;5060605;28;20047;-72
2022/01/03 07:36:45;;;;;;;30.13;5.72;;;9.30;99.90;;;;;;5055981;28;20044;-72
2022/01/03 07:39:11;;;;;;;25.42;4.10;;;9.30;99.90;;;;;;5053780;28;20067;-72
2022/01/03 07:41:36;;;;;;;24.73;4.38;;;9.30;99.90;;;;;;5051605;28;20150;-72
2022/01/03 07:44:02;;;;;;;25.65;4.63;;;9.30;99.90;;;;;;5046424;28;20076;-72
2022/01/03 07:46:28;;;;;;;22.13;3.72;;;9.20;99.90;;;;;;5052977;28;20045;-72
2022/01/03 07:48:53;;;;;;;35.15;5.63;;;9.30;99.90;;;;;;5045871;28;20570;-72
2022/01/03 07:51:19;;;;;;;29.23;4.88;;;9.20;99.90;;;;;;5060663;28;20478;-73
2022/01/03 07:53:44;;;;;;;25.38;4.55;;;9.20;99.90;;;;;;5051948;28;20032;-72
2022/01/03 07:56:10;;;;;;;23.55;5.13;;;9.10;99.90;;;;;;5052009;28;20382;-71
2022/01/03 07:58:39;;;;;;;24.35;5.43;;;9.10;99.90;;;;;;5052116;28;20048;-71
2022/01/03 08:01:05;;;;;;;26.63;3.88;;;9.20;99.90;;;;;;5048722;28;20656;-72
2022/01/03 08:03:31;;;;;;;26.60;4.93;;;9.10;99.90;;;;;;5068396;28;20132;-72
2022/01/03 08:05:56;;;;;;;26.45;4.68;;;9.00;99.90;;;;;;5050337;28;20063;-71
2022/01/03 08:08:23;;;;;;;24.35;4.55;;;9.00;99.90;;;;;;5036756;28;20315;-72
2022/01/03 08:10:49;;;;;;;22.95;4.63;;;9.10;99.90;;;;;;5070348;28;20040;-71
2022/01/03 08:13:15;;;;;;;27.48;4.50;;;9.10;99.90;;;;;;5059774;28;20044;-71
2022/01/03 08:15:41;;;;;;;29.48;4.55;;;9.20;99.90;;;;;;5028418;28;20119;-72
2022/01/03 08:18:08;;;;;;;24.45;4.85;;;9.30;99.90;;;;;;5031866;28;20040;-72
2022/01/03 08:20:34;;;;;;;22.30;4.03;;;9.40;99.90;;;;;;5059757;28;20126;-71
2022/01/03 08:23:01;;;;;;;20.90;3.97;;;9.50;99.90;;;;;;5047235;28;20546;-72
2022/01/03 08:25:27;;;;;;;25.67;4.68;;;9.50;99.90;;;;;;5049705;28;20382;-72
2022/01/03 08:27:52;;;;;;;16.85;2.85;;;9.50;99.90;;;;;;5063061;28;20043;-71
2022/01/03 08:30:18;;;;;;;19.90;3.60;;;9.60;99.90;;;;;;5086399;28;20047;-72
2022/01/03 08:32:44;;;;;;;29.17;5.70;;;9.60;99.90;;;;;;5054661;28;20044;-72
2022/01/03 08:35:10;;;;;;;18.55;3.65;;;9.60;99.90;;;;;;5055018;28;20132;-72
2022/01/03 08:37:36;;;;;;;23.77;4.38;;;9.60;99.90;;;;;;5063131;28;20036;-72
2022/01/03 08:40:04;;;;;;;23.73;4.38;;;9.60;99.90;;;;;;5039884;28;20688;-72
2022/01/03 08:42:31;;;;;;;21.20;4.95;;;9.70;99.90;;;;;;5056057;28;20040;-72
2022/01/03 08:44:57;;;;;;;22.00;3.97;;;9.70;99.90;;;;;;5051149;28;20390;-72
2022/01/03 08:47:23;;;;;;;25.10;4.63;;;9.80;99.90;;;;;;5052119;28;20036;-71
2022/01/03 08:49:48;;;;;;;21.02;3.75;;;9.80;99.90;;;;;;5055161;28;20438;-72
2022/01/03 08:52:15;;;;;;;25.60;4.60;;;9.80;99.90;;;;;;5055197;28;20394;-73
2022/01/03 08:54:40;;;;;;;16.40;3.15;;;9.80;99.90;;;;;;5056342;28;20086;-72
2022/01/03 08:57:06;;;;;;;16.73;3.58;;;9.90;99.90;;;;;;5050077;28;20370;-72
2022/01/03 08:59:32;;;;;;;19.67;4.13;;;9.90;99.90;;;;;;5054126;28;20049;-73
2022/01/03 09:01:58;;;;;;;20.05;4.00;;;9.90;99.90;;;;;;5020847;28;20075;-72
2022/01/03 09:04:23;;;;;;;19.45;3.67;;;9.90;99.90;;;;;;5031752;28;20380;-73
2022/01/03 09:06:50;;;;;;;24.02;3.90;;;9.90;99.90;;;;;;5055225;28;20482;-73
2022/01/03 09:09:16;;;;;;;22.02;4.53;;;9.90;99.90;;;;;;5059071;28;20063;-74
2022/01/03 09:11:41;;;;;;;23.63;4.13;;;10.00;99.90;;;;;;5054679;28;20044;-73
2022/01/03 09:14:07;;;;;;;21.92;4.65;;;10.00;99.90;;;;;;5048199;28;20068;-74
2022/01/03 09:16:32;;;;;;;21.73;3.95;;;10.10;99.90;;;;;;5036052;28;20379;-76
2022/01/03 09:18:58;;;;;;;19.60;3.10;;;10.10;99.90;;;;;;5047586;28;20399;-73
2022/01/03 09:21:24;;;;;;;22.90;3.53;;;10.20;99.90;;;;;;5089283;28;20044;-74
2022/01/03 09:23:54;;;;;;;23.23;4.68;;;10.20;99.90;;;;;;5070501;28;20040;-73
2022/01/03 09:29:05;;;;;;;25.88;4.13;;;10.10;99.90;;;;;;5059047;28;20504;-73
2022/01/03 09:31:36;;;;;;;14.25;3.20;;;10.10;99.90;;;;;;5030423;28;20048;-73
2022/01/03 09:34:06;;;;;;;21.80;4.15;;;10.20;99.90;;;;;;5049104;28;20061;-73
2022/01/03 09:36:32;;;;;;;18.42;3.90;;;10.20;99.90;;;;;;5049526;28;20504;-73
2022/01/03 09:38:59;;;;;;;25.55;4.80;;;10.20;99.90;;;;;;5037020;28;20463;-74
2022/01/03 09:41:27;;;;;;;20.70;4.55;;;10.30;99.90;;;;;;5051001;28;20625;-74
2022/01/03 09:44:02;;;;;;;17.88;3.97;;;10.30;99.90;;;;;;5049661;28;20033;-74
2022/01/03 09:46:34;;;;;;;22.52;3.28;;;10.30;99.90;;;;;;5047205;28;20036;-73
2022/01/03 09:49:00;;;;;;;21.77;4.53;;;10.40;99.90;;;;;;5068656;28;20044;-74
2022/01/03 09:51:28;;;;;;;18.85;3.75;;;10.30;99.90;;;;;;5037179;28;20405;-75
2022/01/03 09:53:57;;;;;;;21.40;4.20;;;10.30;99.90;;;;;;5044624;28;20056;-73
2022/01/03 09:56:23;;;;;;;30.23;5.18;;;10.30;99.90;;;;;;5077551;28;20797;-73
2022/01/03 09:58:49;;;;;;;23.95;4.22;;;10.30;99.90;;;;;;5058952;28;20626;-73
2022/01/03 10:01:15;;;;;;;22.92;4.05;;;10.30;99.90;;;;;;5056099;28;20033;-73
2022/01/03 10:03:47;;;;;;;23.33;4.28;;;10.20;99.90;;;;;;5054543;28;20135;-75
2022/01/03 10:06:13;;;;;;;;;;;10.30;99.90;;;;;;5057282;28;20402;-74
2022/01/03 10:08:38;;;;;;;21.80;4.55;;;10.30;99.90;;;;;;5054142;28;20381;-75
2022/01/03 10:11:04;;;;;;;20.17;4.00;;;10.30;99.90;;;;;;5053833;28;20060;-74
2022/01/03 10:13:29;;;;;;;12.68;2.97;;;10.30;99.90;;;;;;5041463;28;20051;-74
2022/01/03 10:15:55;;;;;;;17.27;3.15;;;10.30;99.90;;;;;;5059454;28;21772;-74
2022/01/03 10:18:20;;;;;;;16.42;2.63;;;10.40;99.90;;;;;;5055456;28;20363;-74
2022/01/03 10:20:47;;;;;;;21.92;4.00;;;10.40;99.90;;;;;;5067790;28;20355;-74
2022/01/03 10:23:16;;;;;;;23.13;3.67;;;10.30;99.90;;;;;;5053107;28;20044;-74
2022/01/03 10:25:43;;;;;;;16.42;3.20;;;10.30;99.90;;;;;;5052756;28;20127;-74
2022/01/03 10:28:09;;;;;;;17.17;3.65;;;10.40;99.90;;;;;;5054720;28;20055;-74
2022/01/03 10:30:40;;;;;;;19.00;3.92;;;10.30;99.90;;;;;;5070790;28;20036;-74
2022/01/03 10:33:08;;;;;;;20.73;4.45;;;10.40;99.90;;;;;;5053995;28;20576;-75
2022/01/03 10:35:46;;;;;;;23.23;4.00;;;10.30;99.90;;;;;;5036341;28;20044;-74
2022/01/03 10:38:36;;;;;;;25.23;4.40;;;10.30;99.90;;;;;;5056904;28;20123;-74
2022/01/03 10:41:19;;;;;;;21.08;4.05;;;10.30;99.90;;;;;;5052325;28;20723;-73
2022/01/03 10:43:56;;;;;;;25.67;4.07;;;10.30;99.90;;;;;;5054304;28;20036;-74
2022/01/03 10:46:27;;;;;;;19.67;3.60;;;10.30;99.90;;;;;;5054128;28;20374;-73
2022/01/03 10:49:04;;;;;;;20.67;4.50;;;10.20;99.90;;;;;;5037164;28;20051;-75
2022/01/03 10:51:30;;;;;;;23.73;4.85;;;10.20;99.90;;;;;;5053918;28;20398;-73
2022/01/03 10:53:56;;;;;;;21.60;4.63;;;10.30;99.90;;;;;;5052795;28;20040;-74
2022/01/03 10:56:38;;;;;;;19.40;4.72;;;10.40;99.90;;;;;;5042631;28;20040;-74
2022/01/03 10:59:18;;;;;;;16.90;3.70;;;10.30;99.90;;;;;;5053757;28;20087;-74
2022/01/03 11:01:49;;;;;;;22.63;4.28;;;10.40;99.90;;;;;;5053729;28;20082;-73
2022/01/03 11:04:33;;;;;;;18.83;3.88;;;10.50;99.90;;;;;;5053856;28;20037;-75
2022/01/03 11:13:19;;;;;;;19.75;3.60;;;10.60;99.90;;;;;;5033787;28;20165;-74
2022/01/03 11:15:58;;;;;;;19.58;4.10;;;10.60;99.90;;;;;;5017136;28;20045;-74
2022/01/03 11:18:27;;;;;;;21.92;4.10;;;10.70;99.90;;;;;;5017195;28;20045;-74
2022/01/03 11:21:19;;;;;;;23.67;4.05;;;10.60;99.90;;;;;;5043875;28;20066;-74
2022/01/03 11:23:48;;;;;;;22.52;4.10;;;10.60;99.90;;;;;;5051639;28;20597;-74
2022/01/03 11:26:19;;;;;;;12.30;2.50;;;10.60;99.90;;;;;;5053180;28;20490;-74
2022/01/03 11:28:45;;;;;;;19.25;4.05;;;10.60;99.90;;;;;;5052952;28;20131;-74
2022/01/03 11:31:13;;;;;;;19.45;3.17;;;10.60;99.90;;;;;;5053057;28;20044;-75
2022/01/03 11:33:39;;;;;;;17.27;2.90;;;10.60;99.90;;;;;;5053449;28;20043;-75
2022/01/03 11:36:06;;;;;;;20.17;3.17;;;10.50;99.90;;;;;;5036792;28;20033;-74
2022/01/03 11:38:35;;;;;;;22.83;4.35;;;10.60;99.90;;;;;;5071471;28;20554;-75
2022/01/03 11:41:04;;;;;;;16.33;3.70;;;10.40;99.90;;;;;;5041907;28;20044;-75
2022/01/03 11:43:32;;;;;;;14.60;2.38;;;10.40;99.90;;;;;;5069975;28;20040;-74
2022/01/03 11:45:57;;;;;;;18.77;3.97;;;10.50;99.90;;;;;;5071338;28;20067;-74
2022/01/03 11:48:26;;;;;;;17.52;3.95;;;10.50;99.90;;;;;;5053259;28;20106;-74
2022/01/03 11:50:53;;;;;;;17.10;3.33;;;10.40;99.90;;;;;;5051638;28;20143;-75
2022/01/03 11:53:20;;;;;;;20.02;3.42;;;10.40;99.90;;;;;;5036680;28;20051;-74
2022/01/03 11:55:50;;;;;;;24.73;4.20;;;10.40;99.90;;;;;;5053054;28;20594;-74
2022/01/03 11:58:41;;;;;;;19.65;3.97;;;10.50;99.90;;;;;;5052811;28;20039;-74
2022/01/03 12:03:54;;;;;;;22.00;4.32;;;10.70;99.90;;;;;;5052801;28;20047;-74
2022/01/03 12:06:32;;;;;;;15.93;2.92;;;10.70;99.90;;;;;;5051071;28;20052;-74
2022/01/03 12:09:11;;;;;;;19.02;3.90;;;10.90;99.90;;;;;;5033102;28;20107;-74
2022/01/03 12:11:53;;;;;;;20.45;3.65;;;10.90;99.90;;;;;;5049562;28;20128;-74
2022/01/03 12:14:20;;;;;;;12.20;2.20;;;10.80;99.90;;;;;;5033249;28;20073;-74
2022/01/03 12:17:03;;;;;;;16.27;3.00;;;10.90;99.90;;;;;;5016363;28;20049;-73
2022/01/03 12:19:43;;;;;;;27.80;3.72;;;10.90;99.90;;;;;;5049711;28;20037;-74
2022/01/03 12:22:22;;;;;;;18.60;3.20;;;10.80;99.90;;;;;;5032870;28;20037;-74
2022/01/03 12:24:49;;;;;;;15.73;3.65;;;10.90;99.90;;;;;;5032895;28;20511;-75
2022/01/03 12:27:15;;;;;;;13.32;2.50;;;11.10;99.90;;;;;;5033043;28;20113;-73
2022/01/03 12:29:56;;;;;;;16.33;3.78;;;11.10;99.90;;;;;;5043863;28;20378;-73
2022/01/03 12:32:30;;;;;;;16.70;3.17;;;11.10;99.90;;;;;;5052769;28;20129;-73
2022/01/03 12:35:10;;;;;;;18.50;2.88;;;11.20;99.90;;;;;;5053044;28;20044;-74
2022/01/03 12:37:47;;;;;;;19.45;3.42;;;11.20;99.90;;;;;;5063343;28;20055;-74
2022/01/03 12:40:18;;;;;;;18.40;4.47;;;11.20;99.90;;;;;;5061660;28;20097;-74
2022/01/03 12:42:52;;;;;;;17.40;3.97;;;11.20;99.90;;;;;;5052638;28;20052;-74
2022/01/03 12:45:30;;;;;;;16.65;2.72;;;11.20;99.90;;;;;;5052624;28;20051;-75
2022/01/03 12:48:11;;;;;;;18.85;4.28;;;11.30;99.90;;;;;;5052504;28;20048;-74
2022/01/03 12:50:40;;;;;;;19.83;4.32;;;11.20;99.90;;;;;;5052713;28;20036;-75
2022/01/03 12:53:08;;;;;;;21.75;4.10;;;11.20;99.90;;;;;;5052493;28;20049;-74
2022/01/03 12:55:36;;;;;;;25.67;4.68;;;11.20;99.90;;;;;;5035998;28;20040;-75
2022/01/03 12:58:22;;;;;;;16.23;3.92;;;11.20;99.90;;;;;;5051227;28;20425;-74
2022/01/03 13:00:55;;;;;;;18.23;3.38;;;11.20;99.90;;;;;;5019161;28;20059;-74
2022/01/03 13:03:25;;;;;;;16.67;2.60;;;11.20;99.90;;;;;;5052411;28;20474;-74
2022/01/03 13:06:13;;;;;;;16.33;3.08;;;11.20;99.90;;;;;;5052299;28;20054;-74
2022/01/03 13:09:18;;;;;;;23.25;3.65;;;11.10;99.90;;;;;;5052705;28;20041;-73
2022/01/03 13:11:46;;;;;;;21.80;3.60;;;11.20;99.90;;;;;;5051100;28;20064;-74